sensor_id;sensor_type;location;lat;lon;timestamp;pressure;altitude;pressure_sealevel;temperature;humidity
60087;BME280;45960;53.630;55.972;2023-01-20T00:00:36;102916.66;;;24.44;15.65
60087;BME280;45960;53.630;55.972;2023-01-20T00:01:40;102908.47;;;24.44;15.73
60087;BME280;45960;53.630;55.972;2023-01-20T00:02:42;102906.72;;;24.43;15.73
60087;BME280;45960;53.630;55.972;2023-01-20T00:03:43;102911.28;;;24.42;15.63
60087;BME280;45960;53.630;55.972;2023-01-20T00:04:47;102911.28;;;24.42;15.67
60087;BME280;45960;53.630;55.972;2023-01-20T00:05:51;102911.28;;;24.42;15.64
60087;BME280;45960;53.630;55.972;2023-01-20T00:06:53;102915.88;;;24.42;15.66
60087;BME280;45960;53.630;55.972;2023-01-20T00:07:54;102917.75;;;24.41;15.63
60087;BME280;45960;53.630;55.972;2023-01-20T00:08:57;102912.44;;;24.40;15.66
60087;BME280;45960;53.630;55.972;2023-01-20T00:09:58;102917.75;;;24.41;15.59
60087;BME280;45960;53.630;55.972;2023-01-20T00:11:04;102913.16;;;24.42;15.67
60087;BME280;45960;53.630;55.972;2023-01-20T00:12:05;102916.91;;;24.41;15.57
60087;BME280;45960;53.630;55.972;2023-01-20T00:13:06;102917.16;;;24.38;15.61
60087;BME280;45960;53.630;55.972;2023-01-20T00:14:08;102917.91;;;24.40;15.46
60087;BME280;45960;53.630;55.972;2023-01-20T00:15:10;102917.91;;;24.40;15.64
60087;BME280;45960;53.630;55.972;2023-01-20T00:16:11;102923.38;;;24.40;15.57
60087;BME280;45960;53.630;55.972;2023-01-20T00:17:13;102927.06;;;24.39;15.57
60087;BME280;45960;53.630;55.972;2023-01-20T00:18:14;102916.16;;;24.39;15.46
60087;BME280;45960;53.630;55.972;2023-01-20T00:19:15;102924.34;;;24.39;15.81
60087;BME280;45960;53.630;55.972;2023-01-20T00:20:16;102932.53;;;24.39;15.50
60087;BME280;45960;53.630;55.972;2023-01-20T00:21:18;102929.06;;;24.37;15.37
60087;BME280;45960;53.630;55.972;2023-01-20T00:22:20;102931.69;;;24.38;15.55
60087;BME280;45960;53.630;55.972;2023-01-20T00:23:21;102930.81;;;24.38;15.52
60087;BME280;45960;53.630;55.972;2023-01-20T00:24:22;102929.94;;;24.37;15.60
60087;BME280;45960;53.630;55.972;2023-01-20T00:25:23;102928.09;;;24.38;15.51
60087;BME280;45960;53.630;55.972;2023-01-20T00:26:24;102919.88;;;24.38;15.53
60087;BME280;45960;53.630;55.972;2023-01-20T00:27:25;102929.94;;;24.37;15.56
60087;BME280;45960;53.630;55.972;2023-01-20T00:28:27;102920.88;;;24.37;15.55
60087;BME280;45960;53.630;55.972;2023-01-20T00:29:28;102920.88;;;24.37;15.53
60087;BME280;45960;53.630;55.972;2023-01-20T00:30:29;102922.72;;;24.36;15.54
60087;BME280;45960;53.630;55.972;2023-01-20T00:31:31;102922.88;;;24.34;15.61
60087;BME280;45960;53.630;55.972;2023-01-20T00:32:39;102926.47;;;24.35;15.79
60087;BME280;45960;53.630;55.972;2023-01-20T00:33:45;102931.06;;;24.34;15.53
60087;BME280;45960;53.630;55.972;2023-01-20T00:34:46;102929.31;;;24.33;15.62
60087;BME280;45960;53.630;55.972;2023-01-20T00:35:47;102929.31;;;24.33;15.46
60087;BME280;45960;53.630;55.972;2023-01-20T00:36:48;102938.50;;;24.32;15.56
60087;BME280;45960;53.630;55.972;2023-01-20T00:37:49;102938.50;;;24.32;15.50
60087;BME280;45960;53.630;55.972;2023-01-20T00:38:50;102927.59;;;24.32;15.60
60087;BME280;45960;53.630;55.972;2023-01-20T00:39:51;102935.66;;;24.34;15.74
60087;BME280;45960;53.630;55.972;2023-01-20T00:40:55;102937.50;;;24.33;15.73
60087;BME280;45960;53.630;55.972;2023-01-20T00:41:56;102934.91;;;24.32;15.76
60087;BME280;45960;53.630;55.972;2023-01-20T00:42:57;102943.97;;;24.32;15.67
60087;BME280;45960;53.630;55.972;2023-01-20T00:43:58;102943.13;;;24.32;15.78
60087;BME280;45960;53.630;55.972;2023-01-20T00:44:59;102936.03;;;24.29;15.88
60087;BME280;45960;53.630;55.972;2023-01-20T00:46:01;102948.69;;;24.30;16.09
60087;BME280;45960;53.630;55.972;2023-01-20T00:47:02;102945.84;;;24.32;16.25
60087;BME280;45960;53.630;55.972;2023-01-20T00:48:03;102940.38;;;24.32;16.17
60087;BME280;45960;53.630;55.972;2023-01-20T00:49:04;102942.25;;;24.31;16.17
60087;BME280;45960;53.630;55.972;2023-01-20T00:50:05;102936.78;;;24.31;16.25
60087;BME280;45960;53.630;55.972;2023-01-20T00:51:07;102940.50;;;24.30;16.23
60087;BME280;45960;53.630;55.972;2023-01-20T00:52:08;102937.75;;;24.30;16.25
60087;BME280;45960;53.630;55.972;2023-01-20T00:53:09;102939.63;;;24.30;16.15
60087;BME280;45960;53.630;55.972;2023-01-20T00:54:10;102942.38;;;24.30;16.22
60087;BME280;45960;53.630;55.972;2023-01-20T00:55:11;102935.91;;;24.31;16.09
60087;BME280;45960;53.630;55.972;2023-01-20T00:56:13;102941.50;;;24.29;16.18
60087;BME280;45960;53.630;55.972;2023-01-20T00:57:14;102927.84;;;24.29;15.98
60087;BME280;45960;53.630;55.972;2023-01-20T00:58:15;102936.03;;;24.29;16.01
60087;BME280;45960;53.630;55.972;2023-01-20T00:59:16;102933.31;;;24.29;16.04
60087;BME280;45960;53.630;55.972;2023-01-20T01:00:17;102937.03;;;24.28;15.99
60087;BME280;45960;53.630;55.972;2023-01-20T01:01:18;102941.50;;;24.29;16.01
60087;BME280;45960;53.630;55.972;2023-01-20T01:02:19;102935.28;;;24.27;15.99
60087;BME280;45960;53.630;55.972;2023-01-20T01:03:21;102937.03;;;24.28;15.79
60087;BME280;45960;53.630;55.972;2023-01-20T01:04:22;102935.28;;;24.27;16.05
60087;BME280;45960;53.630;55.972;2023-01-20T01:05:23;102937.03;;;24.28;15.93
60087;BME280;45960;53.630;55.972;2023-01-20T01:06:24;102936.16;;;24.28;15.85
60087;BME280;45960;53.630;55.972;2023-01-20T01:07:25;102935.28;;;24.27;15.89
60087;BME280;45960;53.630;55.972;2023-01-20T01:08:26;102932.56;;;24.27;15.84
60087;BME280;45960;53.630;55.972;2023-01-20T01:09:27;102930.06;;;24.24;15.83
60087;BME280;45960;53.630;55.972;2023-01-20T01:10:28;102928.97;;;24.27;15.90
60087;BME280;45960;53.630;55.972;2023-01-20T01:11:29;102939.03;;;24.26;15.82
60087;BME280;45960;53.630;55.972;2023-01-20T01:12:30;102931.81;;;24.25;15.85
60087;BME280;45960;53.630;55.972;2023-01-20T01:13:32;102926.34;;;24.25;15.78
60087;BME280;45960;53.630;55.972;2023-01-20T01:14:33;102931.81;;;24.25;15.82
60087;BME280;45960;53.630;55.972;2023-01-20T01:15:35;102924.63;;;24.24;15.86
60087;BME280;45960;53.630;55.972;2023-01-20T01:16:36;102931.81;;;24.25;15.79
60087;BME280;45960;53.630;55.972;2023-01-20T01:17:37;102934.53;;;24.25;15.88
60087;BME280;45960;53.630;55.972;2023-01-20T01:18:39;102936.41;;;24.25;15.75
60087;BME280;45960;53.630;55.972;2023-01-20T01:19:40;102935.53;;;24.24;15.74
60087;BME280;45960;53.630;55.972;2023-01-20T01:20:41;102930.06;;;24.24;15.86
60087;BME280;45960;53.630;55.972;2023-01-20T01:21:44;102929.22;;;24.24;15.72
60087;BME280;45960;53.630;55.972;2023-01-20T01:22:45;102932.81;;;24.24;15.82
60087;BME280;45960;53.630;55.972;2023-01-20T01:23:46;102929.22;;;24.24;15.74
60087;BME280;45960;53.630;55.972;2023-01-20T01:24:47;102928.34;;;24.23;15.73
60087;BME280;45960;53.630;55.972;2023-01-20T01:25:48;102930.06;;;24.24;15.78
60087;BME280;45960;53.630;55.972;2023-01-20T01:26:51;102923.75;;;24.24;15.80
60087;BME280;45960;53.630;55.972;2023-01-20T01:27:52;102929.31;;;24.22;15.78
60087;BME280;45960;53.630;55.972;2023-01-20T01:28:53;102932.06;;;24.22;15.75
60087;BME280;45960;53.630;55.972;2023-01-20T01:29:54;102932.06;;;24.22;15.79
60087;BME280;45960;53.630;55.972;2023-01-20T01:30:59;102926.59;;;24.22;16.03
60087;BME280;45960;53.630;55.972;2023-01-20T01:32:01;102932.06;;;24.22;15.75
60087;BME280;45960;53.630;55.972;2023-01-20T01:33:02;102930.31;;;24.21;15.85
60087;BME280;45960;53.630;55.972;2023-01-20T01:34:03;102931.19;;;24.22;15.86
60087;BME280;45960;53.630;55.972;2023-01-20T01:35:05;102933.06;;;24.21;15.82
60087;BME280;45960;53.630;55.972;2023-01-20T01:36:09;102935.78;;;24.21;15.73
60087;BME280;45960;53.630;55.972;2023-01-20T01:37:11;102928.59;;;24.20;15.90
60087;BME280;45960;53.630;55.972;2023-01-20T01:38:12;102934.06;;;24.20;15.79
60087;BME280;45960;53.630;55.972;2023-01-20T01:39:13;102944.00;;;24.21;15.86
60087;BME280;45960;53.630;55.972;2023-01-20T01:40:14;102940.41;;;24.21;15.89
60087;BME280;45960;53.630;55.972;2023-01-20T01:41:16;102940.50;;;24.19;15.78
60087;BME280;45960;53.630;55.972;2023-01-20T01:42:21;102934.06;;;24.20;15.80
60087;BME280;45960;53.630;55.972;2023-01-20T01:44:25;102941.50;;;24.18;15.72
60087;BME280;45960;53.630;55.972;2023-01-20T01:45:28;102939.78;;;24.17;15.67
60087;BME280;45960;53.630;55.972;2023-01-20T01:46:29;102939.78;;;24.17;15.81
60087;BME280;45960;53.630;55.972;2023-01-20T01:47:31;102945.25;;;24.17;15.67
60087;BME280;45960;53.630;55.972;2023-01-20T01:48:33;102946.97;;;24.18;15.72
60087;BME280;45960;53.630;55.972;2023-01-20T01:49:36;102950.72;;;24.17;15.66
60087;BME280;45960;53.630;55.972;2023-01-20T01:50:46;102946.09;;;24.18;15.72
60087;BME280;45960;53.630;55.972;2023-01-20T01:51:58;102938.03;;;24.16;15.70
60087;BME280;45960;53.630;55.972;2023-01-20T01:52:59;102944.50;;;24.15;15.78
60087;BME280;45960;53.630;55.972;2023-01-20T01:54:17;102943.50;;;24.16;15.60
60087;BME280;45960;53.630;55.972;2023-01-20T01:55:21;102940.25;;;24.11;15.67
60087;BME280;45960;53.630;55.972;2023-01-20T01:56:25;102933.06;;;24.10;15.78
60087;BME280;45960;53.630;55.972;2023-01-20T01:57:28;102938.53;;;24.10;15.74
60087;BME280;45960;53.630;55.972;2023-01-20T01:58:35;102937.78;;;24.08;15.80
60087;BME280;45960;53.630;55.972;2023-01-20T01:59:37;102933.31;;;24.07;15.76
60087;BME280;45960;53.630;55.972;2023-01-20T02:00:38;102936.81;;;24.09;15.65
60087;BME280;45960;53.630;55.972;2023-01-20T02:01:42;102938.53;;;24.10;15.60
60087;BME280;45960;53.630;55.972;2023-01-20T02:02:47;102931.34;;;24.09;15.79
60087;BME280;45960;53.630;55.972;2023-01-20T02:04:06;102935.78;;;24.10;15.88
60087;BME280;45960;53.630;55.972;2023-01-20T02:05:11;102936.81;;;24.09;16.04
60087;BME280;45960;53.630;55.972;2023-01-20T02:06:13;102931.34;;;24.09;16.14
60087;BME280;45960;53.630;55.972;2023-01-20T02:07:18;102937.66;;;24.09;16.07
60087;BME280;45960;53.630;55.972;2023-01-20T02:08:21;102936.81;;;24.09;16.03
60087;BME280;45960;53.630;55.972;2023-01-20T02:09:23;102937.66;;;24.09;15.82
60087;BME280;45960;53.630;55.972;2023-01-20T02:10:25;102942.25;;;24.09;15.75
60087;BME280;45960;53.630;55.972;2023-01-20T02:11:30;102936.81;;;24.09;15.64
60087;BME280;45960;53.630;55.972;2023-01-20T02:12:34;102942.25;;;24.09;15.60
60087;BME280;45960;53.630;55.972;2023-01-20T02:13:35;102941.38;;;24.08;15.69
60087;BME280;45960;53.630;55.972;2023-01-20T02:14:39;102942.25;;;24.09;15.61
60087;BME280;45960;53.630;55.972;2023-01-20T02:17:20;102944.25;;;24.07;15.45
60087;BME280;45960;53.630;55.972;2023-01-20T02:20:17;102942.72;;;24.03;15.42
60087;BME280;45960;53.630;55.972;2023-01-20T02:27:13;102932.31;;;23.97;15.34
60087;BME280;45960;53.630;55.972;2023-01-20T02:28:50;102925.13;;;23.96;15.42
60087;BME280;45960;53.630;55.972;2023-01-20T02:30:47;102917.03;;;23.94;15.57
60087;BME280;45960;53.630;55.972;2023-01-20T02:32:56;102912.69;;;23.92;15.43
60087;BME280;45960;53.630;55.972;2023-01-20T02:34:03;102912.84;;;23.90;15.51
60087;BME280;45960;53.630;55.972;2023-01-20T02:35:09;102915.41;;;23.92;15.50
60087;BME280;45960;53.630;55.972;2023-01-20T02:37:29;102911.56;;;23.94;15.66
60087;BME280;45960;53.630;55.972;2023-01-20T02:38:34;102916.19;;;23.94;15.42
60087;BME280;45960;53.630;55.972;2023-01-20T02:41:56;102924.38;;;23.94;15.53
60087;BME280;45960;53.630;55.972;2023-01-20T02:45:58;102917.28;;;23.91;15.55
60087;BME280;45960;53.630;55.972;2023-01-20T02:47:06;102921.88;;;23.90;15.19
60087;BME280;45960;53.630;55.972;2023-01-20T02:48:33;102917.44;;;23.89;15.20
60087;BME280;45960;53.630;55.972;2023-01-20T02:51:02;102918.41;;;23.88;15.31
60087;BME280;45960;53.630;55.972;2023-01-20T02:52:12;102911.97;;;23.89;15.34
60087;BME280;45960;53.630;55.972;2023-01-20T02:53:15;102913.84;;;23.89;15.14
60087;BME280;45960;53.630;55.972;2023-01-20T02:54:19;102915.66;;;23.88;15.31
60087;BME280;45960;53.630;55.972;2023-01-20T02:55:32;102915.66;;;23.88;15.30
60087;BME280;45960;53.630;55.972;2023-01-20T02:56:35;102907.47;;;23.88;15.31
60087;BME280;45960;53.630;55.972;2023-01-20T02:57:44;102920.16;;;23.89;15.35
60087;BME280;45960;53.630;55.972;2023-01-20T02:59:21;102912.22;;;23.86;15.30
60087;BME280;45960;53.630;55.972;2023-01-20T03:00:20;102916.94;;;23.84;15.52
60087;BME280;45960;53.630;55.972;2023-01-20T03:01:36;102916.94;;;23.84;15.43
60087;BME280;45960;53.630;55.972;2023-01-20T03:02:41;102919.66;;;23.84;15.46
60087;BME280;45960;53.630;55.972;2023-01-20T03:03:45;102915.16;;;23.83;15.50
60087;BME280;45960;53.630;55.972;2023-01-20T03:04:58;102919.66;;;23.84;15.46
60087;BME280;45960;53.630;55.972;2023-01-20T03:06:03;102920.63;;;23.83;15.44
60087;BME280;45960;53.630;55.972;2023-01-20T03:07:06;102927.84;;;23.84;15.57
60087;BME280;45960;53.630;55.972;2023-01-20T03:08:11;102925.97;;;23.85;15.52
60087;BME280;45960;53.630;55.972;2023-01-20T03:09:17;102916.94;;;23.84;15.60
60087;BME280;45960;53.630;55.972;2023-01-20T03:10:23;102929.56;;;23.85;15.51
60087;BME280;45960;53.630;55.972;2023-01-20T03:11:25;102923.25;;;23.85;15.40
60087;BME280;45960;53.630;55.972;2023-01-20T03:12:35;102924.97;;;23.86;15.55
60087;BME280;45960;53.630;55.972;2023-01-20T03:13:51;102914.06;;;23.86;15.52
60087;BME280;45960;53.630;55.972;2023-01-20T03:14:54;102923.25;;;23.85;15.59
60087;BME280;45960;53.630;55.972;2023-01-20T03:16:03;102919.50;;;23.86;15.55
60087;BME280;45960;53.630;55.972;2023-01-20T03:17:04;102930.44;;;23.86;15.59
60087;BME280;45960;53.630;55.972;2023-01-20T03:18:05;102926.09;;;23.83;15.52
60087;BME280;45960;53.630;55.972;2023-01-20T03:19:07;102936.78;;;23.86;15.62
60087;BME280;45960;53.630;55.972;2023-01-20T03:20:08;102936.78;;;23.86;15.62
60087;BME280;45960;53.630;55.972;2023-01-20T03:21:10;102932.19;;;23.87;15.66
60087;BME280;45960;53.630;55.972;2023-01-20T03:22:12;102932.19;;;23.87;15.64
60087;BME280;45960;53.630;55.972;2023-01-20T03:23:13;102942.25;;;23.86;15.69
60087;BME280;45960;53.630;55.972;2023-01-20T03:24:14;102940.50;;;23.85;15.79
60087;BME280;45960;53.630;55.972;2023-01-20T03:25:17;102944.84;;;23.88;15.62
60087;BME280;45960;53.630;55.972;2023-01-20T03:26:20;102942.25;;;23.86;15.77
60087;BME280;45960;53.630;55.972;2023-01-20T03:27:22;102954.91;;;23.87;15.57
60087;BME280;45960;53.630;55.972;2023-01-20T03:28:24;102952.16;;;23.87;15.65
60087;BME280;45960;53.630;55.972;2023-01-20T03:29:25;102948.69;;;23.85;15.57
60087;BME280;45960;53.630;55.972;2023-01-20T03:30:26;102954.91;;;23.87;15.63
60087;BME280;45960;53.630;55.972;2023-01-20T03:31:32;102952.28;;;23.86;15.63
60087;BME280;45960;53.630;55.972;2023-01-20T03:32:34;102954.91;;;23.87;15.70
60087;BME280;45960;53.630;55.972;2023-01-20T03:33:35;102953.91;;;23.88;15.78
60087;BME280;45960;53.630;55.972;2023-01-20T03:34:38;102962.09;;;23.88;15.94
60087;BME280;45960;53.630;55.972;2023-01-20T03:35:42;102960.38;;;23.87;16.11
60087;BME280;45960;53.630;55.972;2023-01-20T03:36:44;102957.63;;;23.87;16.13
60087;BME280;45960;53.630;55.972;2023-01-20T03:37:46;102956.88;;;23.85;16.07
60087;BME280;45960;53.630;55.972;2023-01-20T03:38:47;102962.97;;;23.89;16.27
60087;BME280;45960;53.630;55.972;2023-01-20T03:39:50;102959.34;;;23.88;16.35
60087;BME280;45960;53.630;55.972;2023-01-20T03:42:24;102957.63;;;23.87;16.55
60087;BME280;45960;53.630;55.972;2023-01-20T03:43:47;102942.25;;;23.86;16.36
60087;BME280;45960;53.630;55.972;2023-01-20T03:45:18;102950.44;;;23.86;16.32
60087;BME280;45960;53.630;55.972;2023-01-20T03:46:32;102960.59;;;23.84;16.21
60087;BME280;45960;53.630;55.972;2023-01-20T03:47:57;102952.53;;;23.83;16.12
60087;BME280;45960;53.630;55.972;2023-01-20T03:49:07;102954.38;;;23.82;16.11
60087;BME280;45960;53.630;55.972;2023-01-20T03:51:58;102963.69;;;23.80;15.94
60087;BME280;45960;53.630;55.972;2023-01-20T03:54:24;102956.63;;;23.77;16.01
60087;BME280;45960;53.630;55.972;2023-01-20T03:55:42;102952.16;;;23.76;15.86
60087;BME280;45960;53.630;55.972;2023-01-20T03:57:25;102957.63;;;23.76;15.92
60087;BME280;45960;53.630;55.972;2023-01-20T03:58:34;102955.88;;;23.75;16.00
60087;BME280;45960;53.630;55.972;2023-01-20T03:59:39;102955.00;;;23.75;15.95
60087;BME280;45960;53.630;55.972;2023-01-20T04:00:44;102962.31;;;23.74;15.78
60087;BME280;45960;53.630;55.972;2023-01-20T04:01:46;102963.31;;;23.73;15.86
60087;BME280;45960;53.630;55.972;2023-01-20T04:02:49;102965.03;;;23.74;15.74
60087;BME280;45960;53.630;55.972;2023-01-20T04:03:52;102964.06;;;23.75;15.78
60087;BME280;45960;53.630;55.972;2023-01-20T04:04:55;102952.41;;;23.73;15.69
60087;BME280;45960;53.630;55.972;2023-01-20T04:05:59;102967.66;;;23.76;15.73
60087;BME280;45960;53.630;55.972;2023-01-20T04:07:09;102971.25;;;23.76;15.64
60087;BME280;45960;53.630;55.972;2023-01-20T04:08:13;102964.19;;;23.74;15.60
60087;BME280;45960;53.630;55.972;2023-01-20T04:09:24;102972.25;;;23.75;15.63
60087;BME280;45960;53.630;55.972;2023-01-20T04:10:28;102970.50;;;23.74;15.75
60087;BME280;45960;53.630;55.972;2023-01-20T04:11:30;102975.97;;;23.74;15.57
60087;BME280;45960;53.630;55.972;2023-01-20T04:12:31;102972.25;;;23.75;15.53
60087;BME280;45960;53.630;55.972;2023-01-20T04:13:33;102983.19;;;23.75;15.52
60087;BME280;45960;53.630;55.972;2023-01-20T04:14:35;102982.28;;;23.75;15.53
60087;BME280;45960;53.630;55.972;2023-01-20T04:15:40;102975.97;;;23.74;15.64
60087;BME280;45960;53.630;55.972;2023-01-20T04:16:56;102985.16;;;23.73;15.47
60087;BME280;45960;53.630;55.972;2023-01-20T04:19:12;102991.59;;;23.72;15.41
60087;BME280;45960;53.630;55.972;2023-01-20T04:20:14;102984.28;;;23.73;15.52
60087;BME280;45960;53.630;55.972;2023-01-20T04:21:26;102986.88;;;23.74;15.44
60087;BME280;45960;53.630;55.972;2023-01-20T04:22:38;102982.44;;;23.73;15.50
60087;BME280;45960;53.630;55.972;2023-01-20T04:23:45;102988.84;;;23.72;15.58
60087;BME280;45960;53.630;55.972;2023-01-20T04:24:53;102988.84;;;23.72;15.52
60087;BME280;45960;53.630;55.972;2023-01-20T04:25:57;102988.09;;;23.70;15.29
60087;BME280;45960;53.630;55.972;2023-01-20T04:26:58;102991.72;;;23.71;15.41
60087;BME280;45960;53.630;55.972;2023-01-20T04:27:59;102998.03;;;23.71;15.29
60087;BME280;45960;53.630;55.972;2023-01-20T04:29:00;102996.28;;;23.70;15.31
60087;BME280;45960;53.630;55.972;2023-01-20T04:30:08;102991.72;;;23.71;15.32
60087;BME280;45960;53.630;55.972;2023-01-20T04:31:09;103003.50;;;23.71;15.33
60087;BME280;45960;53.630;55.972;2023-01-20T04:32:11;102999.00;;;23.70;15.21
60087;BME280;45960;53.630;55.972;2023-01-20T04:33:12;102997.25;;;23.69;15.35
60087;BME280;45960;53.630;55.972;2023-01-20T04:34:13;102999.97;;;23.69;15.40
60087;BME280;45960;53.630;55.972;2023-01-20T04:35:18;103001.75;;;23.70;15.36
60087;BME280;45960;53.630;55.972;2023-01-20T04:36:19;103005.44;;;23.69;15.45
60087;BME280;45960;53.630;55.972;2023-01-20T04:37:20;103007.19;;;23.70;15.27
60087;BME280;45960;53.630;55.972;2023-01-20T04:38:22;103007.19;;;23.70;15.30
60087;BME280;45960;53.630;55.972;2023-01-20T04:39:23;103005.44;;;23.69;15.15
60087;BME280;45960;53.630;55.972;2023-01-20T04:40:24;103001.75;;;23.70;15.20
60087;BME280;45960;53.630;55.972;2023-01-20T04:41:25;103004.47;;;23.70;15.44
60087;BME280;45960;53.630;55.972;2023-01-20T04:42:26;103016.34;;;23.69;15.30
60087;BME280;45960;53.630;55.972;2023-01-20T04:43:27;103018.13;;;23.70;15.26
60087;BME280;45960;53.630;55.972;2023-01-20T04:44:28;103021.81;;;23.69;15.27
60087;BME280;45960;53.630;55.972;2023-01-20T04:45:29;103022.72;;;23.70;15.18
60087;BME280;45960;53.630;55.972;2023-01-20T04:46:30;103027.28;;;23.69;15.24
60087;BME280;45960;53.630;55.972;2023-01-20T04:47:32;103014.88;;;23.65;15.16
60087;BME280;45960;53.630;55.972;2023-01-20T04:48:33;103024.56;;;23.69;15.23
60087;BME280;45960;53.630;55.972;2023-01-20T04:49:34;103017.47;;;23.66;15.17
60087;BME280;45960;53.630;55.972;2023-01-20T04:50:39;103021.81;;;23.69;15.27
60087;BME280;45960;53.630;55.972;2023-01-20T04:51:40;103032.75;;;23.69;15.26
60087;BME280;45960;53.630;55.972;2023-01-20T04:52:42;103027.28;;;23.69;15.18
60087;BME280;45960;53.630;55.972;2023-01-20T04:53:43;103028.28;;;23.68;15.33
60087;BME280;45960;53.630;55.972;2023-01-20T04:54:44;103020.09;;;23.68;15.26
60087;BME280;45960;53.630;55.972;2023-01-20T04:55:45;103025.56;;;23.68;15.14
60087;BME280;45960;53.630;55.972;2023-01-20T04:56:48;103020.09;;;23.68;15.30
60087;BME280;45960;53.630;55.972;2023-01-20T04:57:49;103031.00;;;23.68;15.31
60087;BME280;45960;53.630;55.972;2023-01-20T04:58:50;103020.09;;;23.68;15.42
60087;BME280;45960;53.630;55.972;2023-01-20T04:59:51;103026.41;;;23.68;15.20
60087;BME280;45960;53.630;55.972;2023-01-20T05:00:52;103027.28;;;23.69;15.44
60087;BME280;45960;53.630;55.972;2023-01-20T05:01:53;103021.81;;;23.69;15.38
60087;BME280;45960;53.630;55.972;2023-01-20T05:02:57;103007.44;;;23.67;15.35
60087;BME280;45960;53.630;55.972;2023-01-20T05:03:59;103017.38;;;23.68;15.53
60087;BME280;45960;53.630;55.972;2023-01-20T05:05:00;103020.09;;;23.68;15.63
60087;BME280;45960;53.630;55.972;2023-01-20T05:06:03;103020.09;;;23.68;15.60
60087;BME280;45960;53.630;55.972;2023-01-20T05:07:05;103020.34;;;23.65;15.70
60087;BME280;45960;53.630;55.972;2023-01-20T05:08:06;103019.22;;;23.67;15.79
60087;BME280;45960;53.630;55.972;2023-01-20T05:09:12;103018.38;;;23.67;15.61
60087;BME280;45960;53.630;55.972;2023-01-20T05:10:13;103025.56;;;23.68;15.83
60087;BME280;45960;53.630;55.972;2023-01-20T05:11:14;103021.97;;;23.67;15.84
60087;BME280;45960;53.630;55.972;2023-01-20T05:12:16;103023.81;;;23.67;15.81
60087;BME280;45960;53.630;55.972;2023-01-20T05:13:17;103018.38;;;23.67;15.86
60087;BME280;45960;53.630;55.972;2023-01-20T05:14:18;103025.56;;;23.68;15.86
60087;BME280;45960;53.630;55.972;2023-01-20T05:15:19;103025.56;;;23.68;15.90
60087;BME280;45960;53.630;55.972;2023-01-20T05:16:20;103025.56;;;23.68;15.90
60087;BME280;45960;53.630;55.972;2023-01-20T05:17:24;103025.56;;;23.68;15.97
60087;BME280;45960;53.630;55.972;2023-01-20T05:18:27;103021.09;;;23.67;16.04
60087;BME280;45960;53.630;55.972;2023-01-20T05:19:28;103026.56;;;23.67;16.00
60087;BME280;45960;53.630;55.972;2023-01-20T05:20:29;103027.41;;;23.67;16.02
60087;BME280;45960;53.630;55.972;2023-01-20T05:21:30;103018.38;;;23.67;16.02
60087;BME280;45960;53.630;55.972;2023-01-20T05:22:31;103022.94;;;23.66;16.06
60087;BME280;45960;53.630;55.972;2023-01-20T05:23:35;103022.81;;;23.68;16.03
60087;BME280;45960;53.630;55.972;2023-01-20T05:24:36;103020.34;;;23.65;16.01
60087;BME280;45960;53.630;55.972;2023-01-20T05:25:37;103027.53;;;23.66;15.84
60087;BME280;45960;53.630;55.972;2023-01-20T05:26:38;103018.38;;;23.67;16.10
60087;BME280;45960;53.630;55.972;2023-01-20T05:27:39;103021.09;;;23.67;16.11
60087;BME280;45960;53.630;55.972;2023-01-20T05:28:41;103020.09;;;23.68;16.06
60087;BME280;45960;53.630;55.972;2023-01-20T05:29:42;103018.38;;;23.67;16.11
60087;BME280;45960;53.630;55.972;2023-01-20T05:30:44;103028.38;;;23.66;15.99
60087;BME280;45960;53.630;55.972;2023-01-20T05:31:45;103029.28;;;23.67;16.08
60087;BME280;45960;53.630;55.972;2023-01-20T05:32:49;103029.28;;;23.67;16.22
60087;BME280;45960;53.630;55.972;2023-01-20T05:33:51;103027.53;;;23.66;16.04
60087;BME280;45960;53.630;55.972;2023-01-20T05:34:52;103027.53;;;23.66;15.90
60087;BME280;45960;53.630;55.972;2023-01-20T05:35:53;103024.06;;;23.64;16.05
60087;BME280;45960;53.630;55.972;2023-01-20T05:36:54;103026.66;;;23.65;15.92
60087;BME280;45960;53.630;55.972;2023-01-20T05:37:55;103030.25;;;23.66;15.98
60087;BME280;45960;53.630;55.972;2023-01-20T05:38:56;103027.53;;;23.66;16.05
60087;BME280;45960;53.630;55.972;2023-01-20T05:39:57;103024.78;;;23.66;15.98
60087;BME280;45960;53.630;55.972;2023-01-20T05:41:03;103031.13;;;23.66;15.73
60087;BME280;45960;53.630;55.972;2023-01-20T05:42:04;103028.53;;;23.65;15.97
60087;BME280;45960;53.630;55.972;2023-01-20T05:43:06;103027.66;;;23.64;15.87
60087;BME280;45960;53.630;55.972;2023-01-20T05:44:07;103026.78;;;23.64;16.05
60087;BME280;45960;53.630;55.972;2023-01-20T05:45:08;103025.78;;;23.65;15.97
60087;BME280;45960;53.630;55.972;2023-01-20T05:46:10;103026.03;;;23.62;15.96
60087;BME280;45960;53.630;55.972;2023-01-20T05:47:11;103032.25;;;23.64;16.05
60087;BME280;45960;53.630;55.972;2023-01-20T05:48:12;103032.25;;;23.64;16.13
60087;BME280;45960;53.630;55.972;2023-01-20T05:49:13;103031.25;;;23.65;16.05
60087;BME280;45960;53.630;55.972;2023-01-20T05:50:14;103031.25;;;23.65;16.04
60087;BME280;45960;53.630;55.972;2023-01-20T05:51:15;103033.13;;;23.64;16.03
60087;BME280;45960;53.630;55.972;2023-01-20T05:52:16;103039.44;;;23.65;15.94
60087;BME280;45960;53.630;55.972;2023-01-20T05:53:18;103035.84;;;23.64;15.97
60087;BME280;45960;53.630;55.972;2023-01-20T05:54:20;103033.97;;;23.65;16.02